sensor_id;sensor_type;location;lat;lon;timestamp;temperature;humidity
75719;DHT22;64340;48.534;-3.036;2023-06-22T00:02:00;21.40;71.50
75719;DHT22;64340;48.534;-3.036;2023-06-22T00:04:27;21.40;71.50
75719;DHT22;64340;48.534;-3.036;2023-06-22T00:06:53;21.40;71.50
75719;DHT22;64340;48.534;-3.036;2023-06-22T00:09:18;21.40;71.60
75719;DHT22;64340;48.534;-3.036;2023-06-22T00:11:45;21.40;71.50
75719;DHT22;64340;48.534;-3.036;2023-06-22T00:14:10;21.30;71.50
75719;DHT22;64340;48.534;-3.036;2023-06-22T00:16:36;21.30;71.50
75719;DHT22;64340;48.534;-3.036;2023-06-22T00:19:02;21.30;71.50
75719;DHT22;64340;48.534;-3.036;2023-06-22T00:21:29;21.30;71.50
75719;DHT22;64340;48.534;-3.036;2023-06-22T00:23:56;21.30;71.40
75719;DHT22;64340;48.534;-3.036;2023-06-22T00:26:23;21.30;71.40
75719;DHT22;64340;48.534;-3.036;2023-06-22T00:28:48;21.30;71.40
75719;DHT22;64340;48.534;-3.036;2023-06-22T00:31:14;21.30;71.50
75719;DHT22;64340;48.534;-3.036;2023-06-22T00:33:40;21.30;71.40
75719;DHT22;64340;48.534;-3.036;2023-06-22T00:36:06;21.30;71.40
75719;DHT22;64340;48.534;-3.036;2023-06-22T00:38:34;21.30;71.30
75719;DHT22;64340;48.534;-3.036;2023-06-22T00:40:59;21.30;71.30
75719;DHT22;64340;48.534;-3.036;2023-06-22T00:43:25;21.30;71.40
75719;DHT22;64340;48.534;-3.036;2023-06-22T00:45:51;21.20;71.40
75719;DHT22;64340;48.534;-3.036;2023-06-22T00:48:17;21.30;71.30
75719;DHT22;64340;48.534;-3.036;2023-06-22T00:50:43;21.30;71.40
75719;DHT22;64340;48.534;-3.036;2023-06-22T00:53:09;21.30;71.40
75719;DHT22;64340;48.534;-3.036;2023-06-22T00:55:41;21.20;71.50
75719;DHT22;64340;48.534;-3.036;2023-06-22T00:58:17;21.20;71.40
75719;DHT22;64340;48.534;-3.036;2023-06-22T01:00:47;21.20;71.40
75719;DHT22;64340;48.534;-3.036;2023-06-22T01:03:14;21.20;71.40
75719;DHT22;64340;48.534;-3.036;2023-06-22T01:05:40;21.20;71.50
75719;DHT22;64340;48.534;-3.036;2023-06-22T01:16:11;21.20;71.50
75719;DHT22;64340;48.534;-3.036;2023-06-22T01:18:42;21.20;71.40
75719;DHT22;64340;48.534;-3.036;2023-06-22T01:21:17;21.20;71.40
75719;DHT22;64340;48.534;-3.036;2023-06-22T01:24:10;21.10;71.50
75719;DHT22;64340;48.534;-3.036;2023-06-22T01:29:30;21.10;71.40
75719;DHT22;64340;48.534;-3.036;2023-06-22T01:31:59;21.10;71.40
75719;DHT22;64340;48.534;-3.036;2023-06-22T01:34:25;21.10;71.20
75719;DHT22;64340;48.534;-3.036;2023-06-22T01:36:53;21.10;71.30
75719;DHT22;64340;48.534;-3.036;2023-06-22T01:39:19;21.10;71.40
75719;DHT22;64340;48.534;-3.036;2023-06-22T01:41:47;21.10;71.40
75719;DHT22;64340;48.534;-3.036;2023-06-22T01:44:13;21.10;71.40
75719;DHT22;64340;48.534;-3.036;2023-06-22T01:46:40;21.10;71.40
75719;DHT22;64340;48.534;-3.036;2023-06-22T01:49:06;21.10;71.40
75719;DHT22;64340;48.534;-3.036;2023-06-22T01:51:33;21.10;71.40
75719;DHT22;64340;48.534;-3.036;2023-06-22T01:53:59;21.10;71.40
75719;DHT22;64340;48.534;-3.036;2023-06-22T01:56:26;21.10;71.50
75719;DHT22;64340;48.534;-3.036;2023-06-22T01:59:14;21.10;71.50
75719;DHT22;64340;48.534;-3.036;2023-06-22T02:01:54;21.10;71.50
75719;DHT22;64340;48.534;-3.036;2023-06-22T02:04:27;21.10;71.50
75719;DHT22;64340;48.534;-3.036;2023-06-22T02:06:57;21.10;71.50
75719;DHT22;64340;48.534;-3.036;2023-06-22T02:09:25;21.10;71.50
75719;DHT22;64340;48.534;-3.036;2023-06-22T02:11:54;21.10;71.50
75719;DHT22;64340;48.534;-3.036;2023-06-22T02:14:22;21.10;71.50
75719;DHT22;64340;48.534;-3.036;2023-06-22T02:16:50;21.10;71.50
75719;DHT22;64340;48.534;-3.036;2023-06-22T02:19:16;21.10;71.50
75719;DHT22;64340;48.534;-3.036;2023-06-22T02:21:44;21.10;71.40
75719;DHT22;64340;48.534;-3.036;2023-06-22T02:24:10;21.10;71.50
75719;DHT22;64340;48.534;-3.036;2023-06-22T02:26:37;21.10;71.50
75719;DHT22;64340;48.534;-3.036;2023-06-22T02:29:03;21.10;71.50
75719;DHT22;64340;48.534;-3.036;2023-06-22T02:31:29;21.10;71.50
75719;DHT22;64340;48.534;-3.036;2023-06-22T02:33:57;21.10;71.40
75719;DHT22;64340;48.534;-3.036;2023-06-22T02:36:24;21.10;71.50
75719;DHT22;64340;48.534;-3.036;2023-06-22T02:38:50;21.10;71.40
75719;DHT22;64340;48.534;-3.036;2023-06-22T02:41:16;21.10;71.40
75719;DHT22;64340;48.534;-3.036;2023-06-22T02:43:45;21.10;71.40
75719;DHT22;64340;48.534;-3.036;2023-06-22T02:46:12;21.10;71.50
75719;DHT22;64340;48.534;-3.036;2023-06-22T02:48:41;21.00;71.50
75719;DHT22;64340;48.534;-3.036;2023-06-22T02:51:07;21.00;71.40
75719;DHT22;64340;48.534;-3.036;2023-06-22T02:53:33;21.00;71.50
75719;DHT22;64340;48.534;-3.036;2023-06-22T02:55:59;21.00;71.40
75719;DHT22;64340;48.534;-3.036;2023-06-22T02:58:27;21.00;71.40
75719;DHT22;64340;48.534;-3.036;2023-06-22T03:00:52;21.00;71.50
75719;DHT22;64340;48.534;-3.036;2023-06-22T03:03:19;21.00;71.40
75719;DHT22;64340;48.534;-3.036;2023-06-22T03:05:45;21.00;71.20
75719;DHT22;64340;48.534;-3.036;2023-06-22T03:08:11;21.00;71.40
75719;DHT22;64340;48.534;-3.036;2023-06-22T03:10:37;21.00;71.50
75719;DHT22;64340;48.534;-3.036;2023-06-22T03:13:02;21.00;71.40
75719;DHT22;64340;48.534;-3.036;2023-06-22T03:15:28;21.00;71.40
75719;DHT22;64340;48.534;-3.036;2023-06-22T03:17:58;21.00;71.40
75719;DHT22;64340;48.534;-3.036;2023-06-22T03:20:23;21.00;71.50
75719;DHT22;64340;48.534;-3.036;2023-06-22T03:22:50;21.00;71.40
75719;DHT22;64340;48.534;-3.036;2023-06-22T03:25:16;21.00;71.40
75719;DHT22;64340;48.534;-3.036;2023-06-22T03:27:42;21.00;71.40
75719;DHT22;64340;48.534;-3.036;2023-06-22T03:30:11;21.00;71.40
75719;DHT22;64340;48.534;-3.036;2023-06-22T03:32:37;21.00;71.40
75719;DHT22;64340;48.534;-3.036;2023-06-22T03:35:03;21.00;71.40
75719;DHT22;64340;48.534;-3.036;2023-06-22T03:37:29;21.00;71.40
75719;DHT22;64340;48.534;-3.036;2023-06-22T03:39:55;21.00;71.40
75719;DHT22;64340;48.534;-3.036;2023-06-22T03:42:20;20.90;71.40
75719;DHT22;64340;48.534;-3.036;2023-06-22T03:44:47;20.90;71.30
75719;DHT22;64340;48.534;-3.036;2023-06-22T03:47:13;21.00;71.40
75719;DHT22;64340;48.534;-3.036;2023-06-22T03:49:39;20.90;71.40
75719;DHT22;64340;48.534;-3.036;2023-06-22T03:52:05;20.90;71.40
75719;DHT22;64340;48.534;-3.036;2023-06-22T03:54:31;20.90;71.40
75719;DHT22;64340;48.534;-3.036;2023-06-22T03:56:57;20.90;71.40
75719;DHT22;64340;48.534;-3.036;2023-06-22T03:59:24;20.90;71.40
75719;DHT22;64340;48.534;-3.036;2023-06-22T04:01:50;20.90;71.40
75719;DHT22;64340;48.534;-3.036;2023-06-22T04:04:19;20.90;71.40
75719;DHT22;64340;48.534;-3.036;2023-06-22T04:06:44;20.90;71.40
75719;DHT22;64340;48.534;-3.036;2023-06-22T04:09:10;20.90;71.40
75719;DHT22;64340;48.534;-3.036;2023-06-22T04:11:36;20.90;71.40
75719;DHT22;64340;48.534;-3.036;2023-06-22T04:14:02;20.90;71.40
75719;DHT22;64340;48.534;-3.036;2023-06-22T04:16:28;20.90;71.40
75719;DHT22;64340;48.534;-3.036;2023-06-22T04:18:56;20.90;71.40
75719;DHT22;64340;48.534;-3.036;2023-06-22T04:21:22;20.90;71.40
75719;DHT22;64340;48.534;-3.036;2023-06-22T04:23:49;20.90;71.50
75719;DHT22;64340;48.534;-3.036;2023-06-22T04:26:15;20.60;70.50
75719;DHT22;64340;48.534;-3.036;2023-06-22T04:28:41;20.10;71.50
75719;DHT22;64340;48.534;-3.036;2023-06-22T04:31:07;19.70;72.70
75719;DHT22;64340;48.534;-3.036;2023-06-22T04:33:32;19.30;73.80
75719;DHT22;64340;48.534;-3.036;2023-06-22T04:35:59;19.10;74.60
75719;DHT22;64340;48.534;-3.036;2023-06-22T04:38:29;19.00;74.90
75719;DHT22;64340;48.534;-3.036;2023-06-22T04:40:58;18.90;75.50
75719;DHT22;64340;48.534;-3.036;2023-06-22T04:43:24;18.80;75.80
75719;DHT22;64340;48.534;-3.036;2023-06-22T04:45:50;19.00;75.20
75719;DHT22;64340;48.534;-3.036;2023-06-22T04:48:17;19.10;74.80
75719;DHT22;64340;48.534;-3.036;2023-06-22T04:50:43;19.10;74.90
75719;DHT22;64340;48.534;-3.036;2023-06-22T04:53:09;19.00;75.10
75719;DHT22;64340;48.534;-3.036;2023-06-22T04:55:38;19.00;75.20
75719;DHT22;64340;48.534;-3.036;2023-06-22T04:58:07;18.90;75.40
75719;DHT22;64340;48.534;-3.036;2023-06-22T05:00:33;18.80;75.80
75719;DHT22;64340;48.534;-3.036;2023-06-22T05:03:01;18.70;76.00
75719;DHT22;64340;48.534;-3.036;2023-06-22T05:05:29;18.70;76.10
75719;DHT22;64340;48.534;-3.036;2023-06-22T05:07:56;18.70;76.10
75719;DHT22;64340;48.534;-3.036;2023-06-22T05:10:26;18.70;76.20
75719;DHT22;64340;48.534;-3.036;2023-06-22T05:12:52;18.60;76.40
75719;DHT22;64340;48.534;-3.036;2023-06-22T05:15:21;18.60;76.60
75719;DHT22;64340;48.534;-3.036;2023-06-22T05:17:49;18.60;76.30
75719;DHT22;64340;48.534;-3.036;2023-06-22T05:20:16;18.60;76.40
75719;DHT22;64340;48.534;-3.036;2023-06-22T05:22:43;18.60;76.40
75719;DHT22;64340;48.534;-3.036;2023-06-22T05:25:10;18.60;76.10
75719;DHT22;64340;48.534;-3.036;2023-06-22T05:27:36;18.70;76.00
75719;DHT22;64340;48.534;-3.036;2023-06-22T05:30:07;19.00;75.60
75719;DHT22;64340;48.534;-3.036;2023-06-22T05:32:33;19.20;75.00
75719;DHT22;64340;48.534;-3.036;2023-06-22T05:34:59;19.40;74.40
75719;DHT22;64340;48.534;-3.036;2023-06-22T05:37:28;19.50;74.40
75719;DHT22;64340;48.534;-3.036;2023-06-22T05:39:54;19.50;74.40
75719;DHT22;64340;48.534;-3.036;2023-06-22T05:42:22;19.60;74.20
75719;DHT22;64340;48.534;-3.036;2023-06-22T05:44:47;19.70;73.90
75719;DHT22;64340;48.534;-3.036;2023-06-22T05:47:15;19.70;74.00
75719;DHT22;64340;48.534;-3.036;2023-06-22T05:49:41;19.70;74.10
75719;DHT22;64340;48.534;-3.036;2023-06-22T05:52:07;19.70;74.00
75719;DHT22;64340;48.534;-3.036;2023-06-22T05:54:33;19.90;73.60
75719;DHT22;64340;48.534;-3.036;2023-06-22T05:56:58;19.90;73.50
75719;DHT22;64340;48.534;-3.036;2023-06-22T05:59:24;19.90;73.40
75719;DHT22;64340;48.534;-3.036;2023-06-22T06:01:50;19.90;73.50
75719;DHT22;64340;48.534;-3.036;2023-06-22T06:04:17;19.90;73.70
75719;DHT22;64340;48.534;-3.036;2023-06-22T06:06:43;19.90;73.60
75719;DHT22;64340;48.534;-3.036;2023-06-22T06:09:09;19.90;73.70
75719;DHT22;64340;48.534;-3.036;2023-06-22T06:11:37;19.90;73.70
75719;DHT22;64340;48.534;-3.036;2023-06-22T06:14:03;20.00;73.40
75719;DHT22;64340;48.534;-3.036;2023-06-22T06:16:29;20.00;73.40
75719;DHT22;64340;48.534;-3.036;2023-06-22T06:18:54;20.00;73.40
75719;DHT22;64340;48.534;-3.036;2023-06-22T06:21:21;20.00;73.30
75719;DHT22;64340;48.534;-3.036;2023-06-22T06:23:47;20.00;73.40
75719;DHT22;64340;48.534;-3.036;2023-06-22T06:26:13;20.00;73.20
75719;DHT22;64340;48.534;-3.036;2023-06-22T06:28:42;20.00;73.20
75719;DHT22;64340;48.534;-3.036;2023-06-22T06:31:08;20.00;73.00
75719;DHT22;64340;48.534;-3.036;2023-06-22T06:33:34;20.00;72.90
75719;DHT22;64340;48.534;-3.036;2023-06-22T06:36:01;20.00;72.80
75719;DHT22;64340;48.534;-3.036;2023-06-22T06:38:29;20.00;72.90
75719;DHT22;64340;48.534;-3.036;2023-06-22T06:40:55;20.00;72.90
75719;DHT22;64340;48.534;-3.036;2023-06-22T06:43:21;20.10;73.00
75719;DHT22;64340;48.534;-3.036;2023-06-22T06:45:48;20.00;72.90
75719;DHT22;64340;48.534;-3.036;2023-06-22T06:48:14;20.00;72.90
75719;DHT22;64340;48.534;-3.036;2023-06-22T06:50:39;20.10;72.90
75719;DHT22;64340;48.534;-3.036;2023-06-22T06:53:05;20.10;72.80
75719;DHT22;64340;48.534;-3.036;2023-06-22T06:55:32;20.10;72.70
75719;DHT22;64340;48.534;-3.036;2023-06-22T06:57:58;20.20;72.70
75719;DHT22;64340;48.534;-3.036;2023-06-22T07:00:25;20.30;72.50
75719;DHT22;64340;48.534;-3.036;2023-06-22T07:02:51;20.30;72.50
75719;DHT22;64340;48.534;-3.036;2023-06-22T07:05:18;20.30;72.30
75719;DHT22;64340;48.534;-3.036;2023-06-22T07:07:44;20.30;72.30
75719;DHT22;64340;48.534;-3.036;2023-06-22T07:10:10;20.30;72.20
75719;DHT22;64340;48.534;-3.036;2023-06-22T07:12:36;20.30;72.20
75719;DHT22;64340;48.534;-3.036;2023-06-22T07:15:09;20.40;72.10
75719;DHT22;64340;48.534;-3.036;2023-06-22T07:17:36;20.40;72.20
75719;DHT22;64340;48.534;-3.036;2023-06-22T07:20:03;20.50;71.90
75719;DHT22;64340;48.534;-3.036;2023-06-22T07:22:33;20.50;71.70
75719;DHT22;64340;48.534;-3.036;2023-06-22T07:24:59;20.50;71.60
75719;DHT22;64340;48.534;-3.036;2023-06-22T07:27:25;20.50;71.40
75719;DHT22;64340;48.534;-3.036;2023-06-22T07:29:51;20.50;71.40
75719;DHT22;64340;48.534;-3.036;2023-06-22T07:32:18;20.50;71.50
75719;DHT22;64340;48.534;-3.036;2023-06-22T07:34:44;20.50;71.60
75719;DHT22;64340;48.534;-3.036;2023-06-22T07:37:09;20.50;71.60
75719;DHT22;64340;48.534;-3.036;2023-06-22T07:39:35;20.60;71.50
75719;DHT22;64340;48.534;-3.036;2023-06-22T07:42:03;20.60;71.30
75719;DHT22;64340;48.534;-3.036;2023-06-22T07:44:29;20.60;71.20
75719;DHT22;64340;48.534;-3.036;2023-06-22T07:46:54;20.60;71.20
75719;DHT22;64340;48.534;-3.036;2023-06-22T07:49:20;20.60;70.90
75719;DHT22;64340;48.534;-3.036;2023-06-22T07:51:46;20.60;70.60
75719;DHT22;64340;48.534;-3.036;2023-06-22T07:54:12;20.70;70.20
75719;DHT22;64340;48.534;-3.036;2023-06-22T07:56:37;20.70;70.20
75719;DHT22;64340;48.534;-3.036;2023-06-22T07:59:03;20.70;70.30
75719;DHT22;64340;48.534;-3.036;2023-06-22T08:01:29;20.70;70.50
75719;DHT22;64340;48.534;-3.036;2023-06-22T08:03:58;20.70;70.70
75719;DHT22;64340;48.534;-3.036;2023-06-22T08:06:23;20.70;70.60
75719;DHT22;64340;48.534;-3.036;2023-06-22T08:08:49;20.70;70.20
75719;DHT22;64340;48.534;-3.036;2023-06-22T08:11:18;20.80;70.30
75719;DHT22;64340;48.534;-3.036;2023-06-22T08:13:44;20.80;69.90
75719;DHT22;64340;48.534;-3.036;2023-06-22T08:16:09;20.80;69.90
75719;DHT22;64340;48.534;-3.036;2023-06-22T08:18:35;20.80;69.60
75719;DHT22;64340;48.534;-3.036;2023-06-22T08:21:01;20.80;69.40
75719;DHT22;64340;48.534;-3.036;2023-06-22T08:23:27;20.80;69.10
75719;DHT22;64340;48.534;-3.036;2023-06-22T08:25:54;20.80;69.10
75719;DHT22;64340;48.534;-3.036;2023-06-22T08:28:21;20.80;69.00
75719;DHT22;64340;48.534;-3.036;2023-06-22T08:30:46;20.80;69.00
75719;DHT22;64340;48.534;-3.036;2023-06-22T08:33:12;20.80;69.00
75719;DHT22;64340;48.534;-3.036;2023-06-22T08:35:38;20.80;69.10
75719;DHT22;64340;48.534;-3.036;2023-06-22T08:38:04;20.90;69.40
75719;DHT22;64340;48.534;-3.036;2023-06-22T08:40:30;20.90;69.50
75719;DHT22;64340;48.534;-3.036;2023-06-22T08:42:56;20.90;69.00
75719;DHT22;64340;48.534;-3.036;2023-06-22T08:45:22;20.90;68.80
75719;DHT22;64340;48.534;-3.036;2023-06-22T08:47:47;20.90;68.70
75719;DHT22;64340;48.534;-3.036;2023-06-22T08:50:13;20.80;68.60
75719;DHT22;64340;48.534;-3.036;2023-06-22T08:52:40;20.90;68.70
75719;DHT22;64340;48.534;-3.036;2023-06-22T08:55:09;20.90;69.00
75719;DHT22;64340;48.534;-3.036;2023-06-22T08:57:36;20.90;69.20
75719;DHT22;64340;48.534;-3.036;2023-06-22T09:00:07;21.00;68.80
75719;DHT22;64340;48.534;-3.036;2023-06-22T09:02:46;21.10;69.00
75719;DHT22;64340;48.534;-3.036;2023-06-22T09:05:15;21.10;69.30
75719;DHT22;64340;48.534;-3.036;2023-06-22T09:07:43;21.10;69.30
75719;DHT22;64340;48.534;-3.036;2023-06-22T09:10:09;21.10;69.30
75719;DHT22;64340;48.534;-3.036;2023-06-22T09:12:34;21.10;69.20
75719;DHT22;64340;48.534;-3.036;2023-06-22T09:15:03;21.10;69.20
75719;DHT22;64340;48.534;-3.036;2023-06-22T09:17:29;21.10;69.20
75719;DHT22;64340;48.534;-3.036;2023-06-22T09:19:54;21.10;69.20
75719;DHT22;64340;48.534;-3.036;2023-06-22T09:22:21;21.10;69.30
75719;DHT22;64340;48.534;-3.036;2023-06-22T09:24:47;21.20;69.20
75719;DHT22;64340;48.534;-3.036;2023-06-22T09:27:14;21.20;69.40
75719;DHT22;64340;48.534;-3.036;2023-06-22T09:29:39;21.20;69.40
75719;DHT22;64340;48.534;-3.036;2023-06-22T09:32:05;21.20;69.60
75719;DHT22;64340;48.534;-3.036;2023-06-22T09:34:31;21.30;69.50
75719;DHT22;64340;48.534;-3.036;2023-06-22T09:36:57;21.30;69.30
75719;DHT22;64340;48.534;-3.036;2023-06-22T09:39:25;21.30;68.30
75719;DHT22;64340;48.534;-3.036;2023-06-22T09:41:51;21.30;68.60
75719;DHT22;64340;48.534;-3.036;2023-06-22T09:44:17;21.40;68.70
75719;DHT22;64340;48.534;-3.036;2023-06-22T09:46:43;21.40;68.70
75719;DHT22;64340;48.534;-3.036;2023-06-22T09:49:09;21.50;68.70
75719;DHT22;64340;48.534;-3.036;2023-06-22T09:51:34;21.50;68.80
75719;DHT22;64340;48.534;-3.036;2023-06-22T09:54:00;21.50;68.80
75719;DHT22;64340;48.534;-3.036;2023-06-22T09:56:26;21.40;68.80
75719;DHT22;64340;48.534;-3.036;2023-06-22T09:58:53;21.40;68.50
75719;DHT22;64340;48.534;-3.036;2023-06-22T10:01:19;21.40;68.70
75719;DHT22;64340;48.534;-3.036;2023-06-22T10:03:46;21.30;68.60
75719;DHT22;64340;48.534;-3.036;2023-06-22T10:06:12;21.30;68.90
75719;DHT22;64340;48.534;-3.036;2023-06-22T10:08:37;21.40;68.60
75719;DHT22;64340;48.534;-3.036;2023-06-22T10:11:04;21.40;68.80
75719;DHT22;64340;48.534;-3.036;2023-06-22T10:13:30;21.40;68.50
75719;DHT22;64340;48.534;-3.036;2023-06-22T10:15:56;21.40;68.20
75719;DHT22;64340;48.534;-3.036;2023-06-22T10:18:22;21.40;68.20
75719;DHT22;64340;48.534;-3.036;2023-06-22T10:20:49;21.40;68.20
75719;DHT22;64340;48.534;-3.036;2023-06-22T10:23:19;21.50;68.50
75719;DHT22;64340;48.534;-3.036;2023-06-22T10:25:45;21.50;68.20
75719;DHT22;64340;48.534;-3.036;2023-06-22T10:28:11;21.50;68.10
75719;DHT22;64340;48.534;-3.036;2023-06-22T10:30:41;21.50;67.70
75719;DHT22;64340;48.534;-3.036;2023-06-22T10:33:07;21.50;67.60
75719;DHT22;64340;48.534;-3.036;2023-06-22T10:35:34;21.50;67.60
75719;DHT22;64340;48.534;-3.036;2023-06-22T10:37:59;21.50;67.60
75719;DHT22;64340;48.534;-3.036;2023-06-22T10:40:25;21.50;67.70
75719;DHT22;64340;48.534;-3.036;2023-06-22T10:42:51;21.50;67.80
75719;DHT22;64340;48.534;-3.036;2023-06-22T10:45:17;21.50;67.80
75719;DHT22;64340;48.534;-3.036;2023-06-22T10:47:43;21.50;67.80
75719;DHT22;64340;48.534;-3.036;2023-06-22T10:50:09;21.50;67.90
75719;DHT22;64340;48.534;-3.036;2023-06-22T10:52:35;21.50;67.90
75719;DHT22;64340;48.534;-3.036;2023-06-22T10:55:01;21.70;67.90
75719;DHT22;64340;48.534;-3.036;2023-06-22T10:57:27;21.70;68.00
75719;DHT22;64340;48.534;-3.036;2023-06-22T10:59:53;21.70;67.90
75719;DHT22;64340;48.534;-3.036;2023-06-22T11:02:18;21.70;67.90
75719;DHT22;64340;48.534;-3.036;2023-06-22T11:04:44;21.70;67.80
75719;DHT22;64340;48.534;-3.036;2023-06-22T11:07:11;21.70;67.70
75719;DHT22;64340;48.534;-3.036;2023-06-22T11:09:37;21.70;67.80
75719;DHT22;64340;48.534;-3.036;2023-06-22T11:12:04;21.70;67.70
75719;DHT22;64340;48.534;-3.036;2023-06-22T11:14:30;21.70;67.80
75719;DHT22;64340;48.534;-3.036;2023-06-22T11:16:55;21.70;67.50
75719;DHT22;64340;48.534;-3.036;2023-06-22T11:19:21;21.70;67.40
75719;DHT22;64340;48.534;-3.036;2023-06-22T11:21:47;21.70;67.30
75719;DHT22;64340;48.534;-3.036;2023-06-22T11:24:13;21.70;67.30
75719;DHT22;64340;48.534;-3.036;2023-06-22T11:26:39;21.70;67.50
75719;DHT22;64340;48.534;-3.036;2023-06-22T11:29:04;21.70;67.50
75719;DHT22;64340;48.534;-3.036;2023-06-22T11:31:32;21.80;67.60
75719;DHT22;64340;48.534;-3.036;2023-06-22T11:33:58;21.80;67.50
75719;DHT22;64340;48.534;-3.036;2023-06-22T11:36:24;21.90;67.30
75719;DHT22;64340;48.534;-3.036;2023-06-22T11:38:50;21.90;67.20
75719;DHT22;64340;48.534;-3.036;2023-06-22T11:41:17;21.90;67.10
75719;DHT22;64340;48.534;-3.036;2023-06-22T11:43:43;21.90;67.00
75719;DHT22;64340;48.534;-3.036;2023-06-22T11:46:08;21.90;67.10
75719;DHT22;64340;48.534;-3.036;2023-06-22T11:48:35;21.90;67.20
75719;DHT22;64340;48.534;-3.036;2023-06-22T11:51:02;21.90;67.20
75719;DHT22;64340;48.534;-3.036;2023-06-22T11:53:29;21.90;67.20
75719;DHT22;64340;48.534;-3.036;2023-06-22T11:55:55;21.90;67.30
75719;DHT22;64340;48.534;-3.036;2023-06-22T11:58:22;21.90;67.40
75719;DHT22;64340;48.534;-3.036;2023-06-22T12:00:48;21.90;67.30
75719;DHT22;64340;48.534;-3.036;2023-06-22T12:03:14;21.90;67.20
75719;DHT22;64340;48.534;-3.036;2023-06-22T12:05:43;21.90;67.00
75719;DHT22;64340;48.534;-3.036;2023-06-22T12:08:09;21.90;66.90
75719;DHT22;64340;48.534;-3.036;2023-06-22T12:10:34;22.00;67.00
75719;DHT22;64340;48.534;-3.036;2023-06-22T12:13:00;22.00;67.00
75719;DHT22;64340;48.534;-3.036;2023-06-22T12:15:26;22.00;67.30
75719;DHT22;64340;48.534;-3.036;2023-06-22T12:17:52;22.00;67.20
75719;DHT22;64340;48.534;-3.036;2023-06-22T12:20:18;22.00;67.20
75719;DHT22;64340;48.534;-3.036;2023-06-22T12:22:44;22.00;67.30
75719;DHT22;64340;48.534;-3.036;2023-06-22T12:25:11;22.00;67.40
75719;DHT22;64340;48.534;-3.036;2023-06-22T12:27:37;22.00;67.50
75719;DHT22;64340;48.534;-3.036;2023-06-22T12:30:03;22.00;67.60
75719;DHT22;64340;48.534;-3.036;2023-06-22T12:32:29;22.00;67.60
75719;DHT22;64340;48.534;-3.036;2023-06-22T12:34:56;22.00;67.80
75719;DHT22;64340;48.534;-3.036;2023-06-22T12:37:22;22.00;67.80
75719;DHT22;64340;48.534;-3.036;2023-06-22T12:39:48;22.00;67.90
75719;DHT22;64340;48.534;-3.036;2023-06-22T12:42:15;22.00;68.00
75719;DHT22;64340;48.534;-3.036;2023-06-22T12:44:41;22.00;68.00
75719;DHT22;64340;48.534;-3.036;2023-06-22T12:47:07;22.10;67.80
75719;DHT22;64340;48.534;-3.036;2023-06-22T12:49:36;22.10;67.90
75719;DHT22;64340;48.534;-3.036;2023-06-22T12:52:03;22.10;67.90
75719;DHT22;64340;48.534;-3.036;2023-06-22T12:54:33;22.10;68.00
75719;DHT22;64340;48.534;-3.036;2023-06-22T12:56:58;22.00;68.20
75719;DHT22;64340;48.534;-3.036;2023-06-22T12:59:24;22.00;68.20
75719;DHT22;64340;48.534;-3.036;2023-06-22T13:01:50;22.10;68.00
75719;DHT22;64340;48.534;-3.036;2023-06-22T13:04:16;22.10;68.10
75719;DHT22;64340;48.534;-3.036;2023-06-22T13:06:44;22.10;67.90
75719;DHT22;64340;48.534;-3.036;2023-06-22T13:09:14;22.10;67.80
75719;DHT22;64340;48.534;-3.036;2023-06-22T13:11:40;22.10;67.90
75719;DHT22;64340;48.534;-3.036;2023-06-22T13:14:06;22.10;67.70
75719;DHT22;64340;48.534;-3.036;2023-06-22T13:16:32;22.10;67.50
75719;DHT22;64340;48.534;-3.036;2023-06-22T13:18:58;22.10;67.20
75719;DHT22;64340;48.534;-3.036;2023-06-22T13:21:24;22.20;67.10
75719;DHT22;64340;48.534;-3.036;2023-06-22T13:23:50;22.20;67.20
75719;DHT22;64340;48.534;-3.036;2023-06-22T13:26:16;22.10;67.30
75719;DHT22;64340;48.534;-3.036;2023-06-22T13:28:41;22.10;67.50
75719;DHT22;64340;48.534;-3.036;2023-06-22T13:31:07;22.10;67.60
75719;DHT22;64340;48.534;-3.036;2023-06-22T13:33:33;22.10;67.50
75719;DHT22;64340;48.534;-3.036;2023-06-22T13:35:59;22.10;67.60
75719;DHT22;64340;48.534;-3.036;2023-06-22T13:38:25;22.20;67.50
75719;DHT22;64340;48.534;-3.036;2023-06-22T13:40:51;22.20;67.60
75719;DHT22;64340;48.534;-3.036;2023-06-22T13:43:16;22.20;67.60
75719;DHT22;64340;48.534;-3.036;2023-06-22T13:45:43;22.20;67.60
75719;DHT22;64340;48.534;-3.036;2023-06-22T13:48:09;22.20;67.50
75719;DHT22;64340;48.534;-3.036;2023-06-22T13:50:40;22.20;67.70
75719;DHT22;64340;48.534;-3.036;2023-06-22T13:53:06;22.20;67.80
75719;DHT22;64340;48.534;-3.036;2023-06-22T13:55:32;22.30;67.80
75719;DHT22;64340;48.534;-3.036;2023-06-22T13:57:57;22.30;67.60
75719;DHT22;64340;48.534;-3.036;2023-06-22T14:00:24;22.30;67.50
75719;DHT22;64340;48.534;-3.036;2023-06-22T14:02:50;22.30;67.60
75719;DHT22;64340;48.534;-3.036;2023-06-22T14:05:17;22.30;67.70
75719;DHT22;64340;48.534;-3.036;2023-06-22T14:07:42;22.30;67.90
75719;DHT22;64340;48.534;-3.036;2023-06-22T14:10:09;22.20;68.00
75719;DHT22;64340;48.534;-3.036;2023-06-22T14:12:39;22.20;67.90
75719;DHT22;64340;48.534;-3.036;2023-06-22T14:15:05;22.20;67.80
75719;DHT22;64340;48.534;-3.036;2023-06-22T14:17:32;22.30;67.90
75719;DHT22;64340;48.534;-3.036;2023-06-22T14:19:58;22.30;67.80
75719;DHT22;64340;48.534;-3.036;2023-06-22T14:22:24;22.30;67.60
75719;DHT22;64340;48.534;-3.036;2023-06-22T14:24:50;22.30;67.40
75719;DHT22;64340;48.534;-3.036;2023-06-22T14:27:16;22.30;67.20
75719;DHT22;64340;48.534;-3.036;2023-06-22T14:29:42;22.30;67.60
75719;DHT22;64340;48.534;-3.036;2023-06-22T14:32:08;22.40;67.40
75719;DHT22;64340;48.534;-3.036;2023-06-22T14:34:35;22.40;66.80
75719;DHT22;64340;48.534;-3.036;2023-06-22T14:37:02;22.30;66.90
75719;DHT22;64340;48.534;-3.036;2023-06-22T14:39:28;22.30;67.10
75719;DHT22;64340;48.534;-3.036;2023-06-22T14:41:54;22.30;67.20
75719;DHT22;64340;48.534;-3.036;2023-06-22T14:44:20;22.30;67.20
75719;DHT22;64340;48.534;-3.036;2023-06-22T14:46:45;22.30;67.50
75719;DHT22;64340;48.534;-3.036;2023-06-22T14:49:11;22.30;67.40
75719;DHT22;64340;48.534;-3.036;2023-06-22T14:51:37;22.40;67.50
75719;DHT22;64340;48.534;-3.036;2023-06-22T14:54:03;22.30;67.60
75719;DHT22;64340;48.534;-3.036;2023-06-22T14:56:29;22.30;67.50
75719;DHT22;64340;48.534;-3.036;2023-06-22T14:58:55;22.40;67.50
75719;DHT22;64340;48.534;-3.036;2023-06-22T15:01:21;22.30;67.40
75719;DHT22;64340;48.534;-3.036;2023-06-22T15:03:47;22.30;67.60
75719;DHT22;64340;48.534;-3.036;2023-06-22T15:06:12;22.50;67.30
75719;DHT22;64340;48.534;-3.036;2023-06-22T15:08:39;22.60;66.80
75719;DHT22;64340;48.534;-3.036;2023-06-22T15:11:05;22.60;67.50
75719;DHT22;64340;48.534;-3.036;2023-06-22T15:13:31;22.60;67.40
75719;DHT22;64340;48.534;-3.036;2023-06-22T15:16:01;22.60;67.80
75719;DHT22;64340;48.534;-3.036;2023-06-22T15:18:29;22.60;67.60
75719;DHT22;64340;48.534;-3.036;2023-06-22T15:20:54;22.60;67.60
75719;DHT22;64340;48.534;-3.036;2023-06-22T15:23:21;22.70;67.50